Time;durP1;ratioP1;P1;durP2;ratioP2;P2;SDS_P1;SDS_P2;PMS_P1;PMS_P2;Temp;Humidity;BMP_temperature;BMP_pressure;BME280_temperature;BME280_humidity;BME280_pressure;Samples;Min_cycle;Max_cycle;Signal;HPM_P1;HPM_P2
2022/11/20 00:00:35;;;;;;;17.60;12.10;;;0.80;99.90;;;;;;5032126;28;20053;-64
2022/11/20 00:03:01;;;;;;;18.88;12.02;;;0.80;99.90;;;;;;5042272;28;20056;-65
2022/11/20 00:05:27;;;;;;;15.98;10.82;;;0.80;99.90;;;;;;5025003;28;20542;-65
2022/11/20 00:07:53;;;;;;;21.00;12.30;;;0.80;99.90;;;;;;5046653;28;20041;-65
2022/11/20 00:10:18;;;;;;;22.95;14.15;;;0.90;99.90;;;;;;5048699;28;20040;-64
2022/11/20 00:12:44;;;;;;;24.60;15.95;;;0.90;99.90;;;;;;5047854;28;20040;-65
2022/11/20 00:15:10;;;;;;;20.05;13.40;;;0.90;99.90;;;;;;5048618;28;20127;-65
2022/11/20 00:17:35;;;;;;;17.85;12.07;;;0.90;99.90;;;;;;5047258;28;20384;-64
2022/11/20 00:20:01;;;;;;;19.88;13.32;;;0.90;99.90;;;;;;5045733;28;21328;-65
2022/11/20 00:22:27;;;;;;;19.30;13.10;;;1.00;99.90;;;;;;5039195;28;20037;-65
2022/11/20 00:24:52;;;;;;;21.23;12.90;;;1.00;99.90;;;;;;5050705;28;20052;-64
2022/11/20 00:27:18;;;;;;;15.18;10.30;;;0.90;99.90;;;;;;5039464;28;20037;-64
2022/11/20 00:29:44;;;;;;;16.20;11.00;;;0.90;99.90;;;;;;5044702;28;20065;-64
2022/11/20 00:32:09;;;;;;;17.95;11.55;;;1.00;99.90;;;;;;5044759;28;20506;-64
2022/11/20 00:34:35;;;;;;;27.08;16.08;;;1.00;99.90;;;;;;5042419;28;20029;-64
2022/11/20 00:37:01;;;;;;;23.20;14.57;;;1.00;99.90;;;;;;5024023;28;20487;-65
2022/11/20 00:39:27;;;;;;;19.40;12.77;;;1.00;99.90;;;;;;5023013;28;20038;-66
2022/11/20 00:41:52;;;;;;;18.23;12.40;;;1.10;99.90;;;;;;5034334;28;20238;-66
2022/11/20 00:44:18;;;;;;;17.83;12.00;;;1.10;99.90;;;;;;5028130;28;20051;-66
2022/11/20 00:46:44;;;;;;;19.08;11.48;;;1.10;99.90;;;;;;5036763;28;20091;-65
2022/11/20 00:49:09;;;;;;;18.92;12.02;;;1.10;99.90;;;;;;5041581;28;20079;-65
2022/11/20 00:51:35;;;;;;;19.42;12.15;;;1.10;99.90;;;;;;5042930;28;20763;-66
2022/11/20 00:54:01;;;;;;;17.15;11.38;;;1.10;99.90;;;;;;5041091;28;20120;-65
2022/11/20 00:56:27;;;;;;;18.75;12.45;;;1.10;99.90;;;;;;5043991;28;20071;-66
2022/11/20 00:58:53;;;;;;;19.08;12.23;;;1.10;99.90;;;;;;5043503;28;20114;-66
2022/11/20 01:01:25;;;;;;;18.38;11.48;;;1.00;99.90;;;;;;5042018;28;20040;-66
2022/11/20 01:03:52;;;;;;;17.83;11.75;;;0.30;99.90;;;;;;5035535;28;20500;-65
2022/11/20 01:06:27;;;;;;;16.80;11.57;;;1.00;99.90;;;;;;5042676;28;20045;-66
2022/11/20 01:08:55;;;;;;;16.05;10.98;;;1.10;99.90;;;;;;5062993;28;20043;-66
2022/11/20 01:11:23;;;;;;;15.40;9.73;;;1.10;99.90;;;;;;5028049;28;20099;-65
2022/11/20 01:13:50;;;;;;;17.20;11.73;;;1.00;99.90;;;;;;5044838;28;20037;-66
2022/11/20 01:16:23;;;;;;;19.17;12.00;;;1.00;99.90;;;;;;5029599;28;20408;-66
2022/11/20 01:18:52;;;;;;;16.73;11.00;;;0.90;99.90;;;;;;5046673;28;20404;-66
2022/11/20 01:21:23;;;;;;;16.60;10.98;;;0.90;99.90;;;;;;5027390;28;20048;-66
2022/11/20 01:23:51;;;;;;;20.38;12.90;;;0.90;99.90;;;;;;5042411;28;20056;-66
2022/11/20 01:26:19;;;;;;;18.98;12.57;;;0.90;99.90;;;;;;5041325;28;20405;-66
2022/11/20 01:28:45;;;;;;;20.13;12.60;;;0.90;99.90;;;;;;5039305;28;20049;-65
2022/11/20 01:31:19;;;;;;;19.67;11.90;;;1.00;99.90;;;;;;5027938;28;20124;-66
2022/11/20 01:33:45;;;;;;;;;;;1.00;99.90;;;;;;5043064;28;20712;-66
2022/11/20 01:36:12;;;;;;;17.98;11.15;;;0.90;99.90;;;;;;5023122;28;20006;-65
2022/11/20 01:38:38;;;;;;;16.75;10.38;;;1.00;99.90;;;;;;5042446;28;20033;-65
2022/11/20 01:41:05;;;;;;;19.83;13.52;;;1.00;99.90;;;;;;5039315;28;20043;-66
2022/11/20 01:43:31;;;;;;;22.55;14.88;;;1.00;99.90;;;;;;5043265;28;20106;-66
2022/11/20 01:46:18;;;;;;;20.50;13.48;;;1.00;99.90;;;;;;5038860;28;20077;-66
2022/11/20 01:48:50;;;;;;;15.55;10.32;;;1.00;99.90;;;;;;5040462;28;20201;-66
2022/11/20 01:51:22;;;;;;;14.18;9.75;;;1.00;99.90;;;;;;5035945;28;20077;-65
2022/11/20 01:53:48;;;;;;;20.95;13.13;;;1.00;99.90;;;;;;5022287;28;20116;-66
2022/11/20 01:56:14;;;;;;;16.67;10.40;;;1.00;99.90;;;;;;5041396;28;20044;-65
2022/11/20 01:58:56;;;;;;;16.67;10.80;;;1.00;99.90;;;;;;5039341;28;20045;-65
2022/11/20 02:01:21;;;;;;;18.73;11.82;;;1.00;99.90;;;;;;5039674;28;20099;-65
2022/11/20 02:03:49;;;;;;;15.77;10.23;;;1.10;99.90;;;;;;5032234;23;20065;-65
2022/11/20 02:06:35;;;;;;;18.52;11.15;;;1.10;99.90;;;;;;4984852;28;20041;-65
2022/11/20 02:09:01;;;;;;;17.33;11.18;;;1.10;99.90;;;;;;5007001;28;20075;-65
2022/11/20 02:11:27;;;;;;;15.48;9.95;;;1.10;99.90;;;;;;4999148;28;20392;-66
2022/11/20 02:13:54;;;;;;;20.92;12.18;;;1.10;99.90;;;;;;4997184;28;20038;-65
2022/11/20 02:16:27;;;;;;;19.42;11.75;;;1.10;99.90;;;;;;5012054;28;20157;-66
2022/11/20 02:18:56;;;;;;;19.20;11.50;;;1.10;99.90;;;;;;4996899;28;20160;-66
2022/11/20 02:21:47;;;;;;;19.13;12.50;;;1.10;99.90;;;;;;5005042;28;20042;-65
2022/11/20 02:24:18;;;;;;;14.35;9.65;;;1.10;99.90;;;;;;4995857;28;20046;-65
2022/11/20 02:26:52;;;;;;;19.60;12.18;;;1.10;99.90;;;;;;4999691;28;20052;-65
2022/11/20 02:29:33;;;;;;;17.55;10.30;;;1.10;99.90;;;;;;4997927;28;20398;-64
2022/11/20 02:32:01;;;;;;;18.92;10.70;;;1.10;99.90;;;;;;4991527;28;20065;-65
2022/11/20 02:34:27;;;;;;;17.77;11.75;;;1.10;99.90;;;;;;4993649;28;20113;-65
2022/11/20 02:36:53;;;;;;;20.77;13.00;;;1.10;99.90;;;;;;5003672;28;20563;-65
2022/11/20 02:39:20;;;;;;;17.13;10.50;;;1.10;99.90;;;;;;4982256;28;20129;-66
2022/11/20 02:41:46;;;;;;;15.55;10.10;;;1.10;99.90;;;;;;4994643;28;20508;-65
2022/11/20 02:44:12;;;;;;;22.83;12.75;;;1.10;99.90;;;;;;4996265;28;20048;-65
2022/11/20 02:46:38;;;;;;;18.60;12.35;;;1.10;99.90;;;;;;4998208;28;20030;-65
2022/11/20 02:49:05;;;;;;;17.00;10.02;;;1.10;99.90;;;;;;4996680;28;20049;-66
2022/11/20 02:51:31;;;;;;;17.70;10.77;;;1.10;99.90;;;;;;4984014;28;20553;-65
2022/11/20 02:53:57;;;;;;;17.52;11.95;;;1.10;99.90;;;;;;4979658;28;20049;-64
2022/11/20 02:56:23;;;;;;;19.13;11.40;;;1.10;99.90;;;;;;4993870;28;20049;-65
2022/11/20 02:58:49;;;;;;;19.88;11.40;;;1.10;99.90;;;;;;4980988;28;20030;-65
2022/11/20 03:01:15;;;;;;;15.27;10.65;;;1.10;99.90;;;;;;4972234;28;20124;-65
2022/11/20 03:03:41;;;;;;;15.32;10.02;;;1.10;99.90;;;;;;5003036;28;20500;-65
2022/11/20 03:06:07;;;;;;;16.75;10.05;;;1.10;99.90;;;;;;4993476;28;20046;-66
2022/11/20 03:08:33;;;;;;;21.98;12.50;;;1.10;99.90;;;;;;4993214;28;20073;-65
2022/11/20 03:11:07;;;;;;;17.88;10.95;;;1.10;99.90;;;;;;4997794;28;20284;-66
2022/11/20 03:13:33;;;;;;;18.50;11.35;;;1.10;99.90;;;;;;4994564;28;20080;-65
2022/11/20 03:16:14;;;;;;;16.15;10.38;;;1.20;99.90;;;;;;5013578;28;20042;-65
2022/11/20 03:18:41;;;;;;;17.40;10.10;;;1.20;99.90;;;;;;4997687;28;20447;-65
2022/11/20 03:21:09;;;;;;;19.55;12.18;;;1.20;99.90;;;;;;5007877;28;20128;-65
2022/11/20 03:23:35;;;;;;;16.05;11.32;;;1.90;99.90;;;;;;4989464;28;20052;-65
2022/11/20 03:26:27;;;;;;;14.80;10.30;;;1.20;99.90;;;;;;4998405;28;20037;-65
2022/11/20 03:28:58;;;;;;;15.02;9.82;;;1.30;99.90;;;;;;4999712;28;20445;-65
2022/11/20 03:31:29;;;;;;;16.92;10.65;;;1.30;99.90;;;;;;5021015;28;20038;-66
2022/11/20 03:33:59;;;;;;;16.23;9.63;;;1.30;99.90;;;;;;5003627;28;20034;-65
2022/11/20 03:36:25;;;;;;;17.83;11.63;;;1.30;99.90;;;;;;5000296;28;20052;-66
2022/11/20 03:38:54;;;;;;;19.17;12.00;;;1.20;99.90;;;;;;4986317;28;20630;-64
2022/11/20 03:41:22;;;;;;;17.45;10.40;;;1.30;99.90;;;;;;4980540;28;20068;-64
2022/11/20 03:43:53;;;;;;;16.58;10.10;;;1.30;99.90;;;;;;5004595;28;20041;-65
2022/11/20 03:46:19;;;;;;;17.13;10.25;;;1.30;99.90;;;;;;4987006;28;20042;-65
2022/11/20 03:48:45;;;;;;;15.07;9.18;;;1.30;99.90;;;;;;4998179;28;20485;-65
2022/11/20 03:51:11;;;;;;;15.52;9.80;;;1.30;99.90;;;;;;5002210;28;20048;-66
2022/11/20 03:53:37;;;;;;;14.82;8.82;;;1.40;99.90;;;;;;5004990;28;20084;-65
2022/11/20 03:56:03;;;;;;;17.33;10.15;;;0.80;99.90;;;;;;5002261;28;20034;-65
2022/11/20 03:58:29;;;;;;;17.08;11.38;;;1.30;99.90;;;;;;4981660;28;20053;-66
2022/11/20 04:00:55;;;;;;;18.48;12.07;;;1.30;99.90;;;;;;5002790;28;20046;-65
2022/11/20 04:03:20;;;;;;;15.77;10.75;;;1.30;99.90;;;;;;4984797;28;20033;-66
2022/11/20 04:05:46;;;;;;;16.42;9.60;;;1.30;99.90;;;;;;5004464;28;20049;-64
2022/11/20 04:08:12;;;;;;;15.43;9.73;;;1.30;99.90;;;;;;5001898;28;20044;-65
2022/11/20 04:10:37;;;;;;;16.42;10.98;;;1.40;99.90;;;;;;5006128;28;20099;-65
2022/11/20 04:13:03;;;;;;;15.32;9.70;;;1.30;99.90;;;;;;4998619;28;20037;-64
2022/11/20 04:15:29;;;;;;;18.02;11.68;;;1.30;99.90;;;;;;4999522;28;20042;-66
2022/11/20 04:17:55;;;;;;;17.92;12.05;;;1.30;99.90;;;;;;4993566;28;20046;-65
2022/11/20 04:20:21;;;;;;;16.40;10.13;;;1.30;99.90;;;;;;5008201;28;20046;-65
2022/11/20 04:22:46;;;;;;;16.02;10.60;;;1.30;99.90;;;;;;4980591;28;20041;-65
2022/11/20 04:25:12;;;;;;;16.80;10.23;;;1.30;99.90;;;;;;4989663;28;20125;-66
2022/11/20 04:27:38;;;;;;;16.83;10.45;;;1.20;99.90;;;;;;4986347;28;20030;-65
2022/11/20 04:30:04;;;;;;;15.88;9.75;;;1.20;99.90;;;;;;4999718;28;20053;-65
2022/11/20 04:32:30;;;;;;;14.55;9.50;;;1.20;99.90;;;;;;4996926;28;20045;-65
2022/11/20 04:34:55;;;;;;;18.13;10.52;;;1.10;99.90;;;;;;5021337;28;20405;-65
2022/11/20 04:37:21;;;;;;;15.30;10.02;;;1.10;99.90;;;;;;4995447;28;20050;-64
2022/11/20 04:39:47;;;;;;;17.13;11.02;;;1.00;99.90;;;;;;5016963;28;20041;-65
2022/11/20 04:42:30;;;;;;;17.92;11.20;;;1.00;99.90;;;;;;5003264;28;20396;-64
2022/11/20 04:44:57;;;;;;;16.55;10.40;;;0.90;99.90;;;;;;5000895;28;20125;-66
2022/11/20 04:47:22;;;;;;;19.65;10.68;;;0.90;99.90;;;;;;4999612;28;20038;-65
2022/11/20 04:49:48;;;;;;;18.20;10.68;;;0.80;99.90;;;;;;5001839;28;20076;-65
2022/11/20 04:52:14;;;;;;;15.35;10.20;;;0.70;99.90;;;;;;4995966;28;20651;-65
2022/11/20 04:54:39;;;;;;;14.23;9.75;;;0.80;99.90;;;;;;4986086;28;20042;-66
2022/11/20 04:57:05;;;;;;;15.35;9.48;;;1.20;99.90;;;;;;5004291;28;20038;-65
2022/11/20 04:59:31;;;;;;;17.30;11.35;;;0.70;99.90;;;;;;4996716;28;20045;-64
2022/11/20 05:01:56;;;;;;;15.52;10.80;;;0.70;99.90;;;;;;4979762;28;20046;-65
2022/11/20 05:04:22;;;;;;;16.23;10.40;;;0.70;99.90;;;;;;4999477;28;20041;-66
2022/11/20 05:06:49;;;;;;;16.35;10.30;;;0.70;99.90;;;;;;5003324;28;20405;-66
2022/11/20 05:09:15;;;;;;;18.38;10.55;;;0.60;99.90;;;;;;5005636;28;20038;-65
2022/11/20 05:11:41;;;;;;;17.75;10.88;;;0.60;99.90;;;;;;5012326;28;20056;-66
2022/11/20 05:14:06;;;;;;;14.30;9.50;;;0.50;99.90;;;;;;4999580;28;20037;-66
2022/11/20 05:16:34;;;;;;;16.55;10.63;;;0.50;99.90;;;;;;4991196;28;20042;-65
2022/11/20 05:18:59;;;;;;;17.33;11.32;;;0.60;99.90;;;;;;5016562;28;20042;-65
2022/11/20 05:21:25;;;;;;;16.67;11.23;;;0.60;99.90;;;;;;5005693;28;20382;-66
2022/11/20 05:23:51;;;;;;;20.50;12.18;;;0.70;99.90;;;;;;4994331;28;20116;-66
2022/11/20 05:26:21;;;;;;;16.80;10.77;;;0.60;99.90;;;;;;5003381;28;20048;-66
2022/11/20 05:28:48;;;;;;;17.83;10.52;;;0.60;99.90;;;;;;5001228;28;20568;-66
2022/11/20 05:31:20;;;;;;;14.88;10.57;;;0.50;99.90;;;;;;5001315;28;20088;-65
2022/11/20 05:33:46;;;;;;;16.33;10.50;;;0.50;99.90;;;;;;4995010;28;20473;-66
2022/11/20 05:36:13;;;;;;;18.80;11.45;;;0.50;99.90;;;;;;5000678;28;20056;-66
2022/11/20 05:38:40;;;;;;;19.67;12.55;;;0.50;99.90;;;;;;4987109;28;20400;-66
2022/11/20 05:41:15;;;;;;;17.10;10.23;;;0.50;99.90;;;;;;4999498;28;20121;-65
2022/11/20 05:43:43;;;;;;;17.05;11.10;;;0.50;99.90;;;;;;4986496;28;20049;-66
2022/11/20 05:46:11;;;;;;;15.10;10.35;;;0.50;99.90;;;;;;4994858;28;20092;-66
2022/11/20 05:48:38;;;;;;;15.65;10.32;;;0.60;99.90;;;;;;4994510;28;20042;-66
2022/11/20 05:51:06;;;;;;;17.67;10.00;;;0.60;99.90;;;;;;4984266;28;20042;-65
2022/11/20 05:53:33;;;;;;;14.20;9.90;;;0.60;99.90;;;;;;4986035;28;21244;-65
2022/11/20 05:56:01;;;;;;;16.40;10.60;;;0.60;99.90;;;;;;4983667;28;20049;-64
2022/11/20 05:58:28;;;;;;;15.20;9.85;;;0.70;99.90;;;;;;4994978;28;20493;-66
2022/11/20 06:00:54;;;;;;;18.55;11.18;;;0.70;99.90;;;;;;4994525;28;20049;-65
2022/11/20 06:03:20;;;;;;;14.93;9.65;;;0.70;99.90;;;;;;4990244;28;20475;-65
2022/11/20 06:05:46;;;;;;;15.77;10.60;;;0.80;99.90;;;;;;4983794;28;20267;-65
2022/11/20 06:08:12;;;;;;;16.48;10.98;;;0.80;99.90;;;;;;5013072;28;20052;-65
2022/11/20 06:10:38;;;;;;;17.83;11.63;;;0.70;99.90;;;;;;4980848;28;20034;-65
2022/11/20 06:13:03;;;;;;;16.02;10.85;;;0.70;99.90;;;;;;4966520;28;20031;-66
2022/11/20 06:15:29;;;;;;;15.90;9.60;;;0.80;99.90;;;;;;5000998;28;20042;-63
2022/11/20 06:17:55;;;;;;;19.10;11.15;;;0.80;99.90;;;;;;4994694;28;20489;-66
2022/11/20 06:20:21;;;;;;;16.30;11.25;;;0.80;99.90;;;;;;4983406;28;20070;-66
2022/11/20 06:22:47;;;;;;;15.27;10.05;;;0.80;99.90;;;;;;5012483;28;20132;-65
2022/11/20 06:25:13;;;;;;;17.73;10.65;;;0.90;99.90;;;;;;5002224;28;20116;-65
2022/11/20 06:27:39;;;;;;;17.75;10.48;;;0.90;99.90;;;;;;5007524;28;21423;-66
2022/11/20 06:30:05;;;;;;;19.25;12.43;;;0.90;99.90;;;;;;5001296;28;20077;-64
2022/11/20 06:32:32;;;;;;;18.77;12.00;;;0.90;99.90;;;;;;4973817;28;20044;-66
2022/11/20 06:34:58;;;;;;;17.33;11.48;;;0.90;99.90;;;;;;4987449;28;20070;-66
2022/11/20 06:37:23;;;;;;;16.23;11.27;;;0.90;99.90;;;;;;4997101;28;20365;-66
2022/11/20 06:39:49;;;;;;;16.38;11.02;;;0.80;99.90;;;;;;4999233;28;20054;-65
2022/11/20 06:42:15;;;;;;;14.85;10.07;;;0.80;99.90;;;;;;4999082;28;20203;-66
2022/11/20 06:44:40;;;;;;;15.52;10.25;;;0.80;99.90;;;;;;4995299;28;20037;-65
2022/11/20 06:47:06;;;;;;;16.58;11.75;;;0.80;99.90;;;;;;5016672;28;20080;-66
2022/11/20 06:49:34;;;;;;;15.18;9.82;;;0.80;99.90;;;;;;4998845;28;20034;-65
2022/11/20 06:51:59;;;;;;;17.23;11.15;;;0.80;99.90;;;;;;4999457;28;20144;-66
2022/11/20 06:54:25;;;;;;;17.25;11.82;;;0.70;99.90;;;;;;4988675;28;20120;-65
2022/11/20 06:56:51;;;;;;;14.93;9.82;;;0.70;99.90;;;;;;4970641;28;20541;-65
2022/11/20 06:59:16;;;;;;;17.92;11.60;;;0.70;99.90;;;;;;4990084;28;20096;-65
2022/11/20 07:01:42;;;;;;;17.38;11.57;;;0.70;99.90;;;;;;5005075;28;20100;-65
2022/11/20 07:04:08;;;;;;;17.83;11.63;;;0.70;99.90;;;;;;4980174;28;20110;-64
2022/11/20 07:06:35;;;;;;;19.92;12.27;;;0.60;99.90;;;;;;4992669;28;20042;-66
2022/11/20 07:09:01;;;;;;;16.42;10.77;;;0.60;99.90;;;;;;4977728;28;20429;-66
2022/11/20 07:11:27;;;;;;;17.90;11.50;;;0.60;99.90;;;;;;4990698;28;20052;-65
2022/11/20 07:13:53;;;;;;;16.23;11.23;;;0.70;99.90;;;;;;4995701;28;20041;-65
2022/11/20 07:16:18;;;;;;;18.88;12.23;;;0.70;99.90;;;;;;5004091;28;20132;-65
2022/11/20 07:18:44;;;;;;;17.85;11.80;;;0.70;99.90;;;;;;4982625;28;20132;-66
2022/11/20 07:21:10;;;;;;;20.20;13.00;;;0.80;99.90;;;;;;5000118;28;20715;-65
2022/11/20 07:23:36;;;;;;;18.00;11.57;;;0.80;99.90;;;;;;4988367;28;20042;-66
2022/11/20 07:26:04;;;;;;;18.40;11.00;;;0.80;99.90;;;;;;4997133;28;20401;-65
2022/11/20 07:28:30;;;;;;;19.52;12.35;;;0.80;99.90;;;;;;5011670;28;20064;-65
2022/11/20 07:30:56;;;;;;;16.35;12.13;;;0.80;99.90;;;;;;4979577;28;20135;-66
2022/11/20 07:33:21;;;;;;;16.85;10.52;;;0.70;99.90;;;;;;4999729;28;20277;-64
2022/11/20 07:35:47;;;;;;;17.08;11.02;;;0.70;99.90;;;;;;4997602;28;20042;-66
2022/11/20 07:38:13;;;;;;;18.08;11.68;;;0.70;99.90;;;;;;4992465;28;20307;-65
2022/11/20 07:40:39;;;;;;;17.67;12.05;;;0.70;99.90;;;;;;4962408;28;20173;-64
2022/11/20 07:43:04;;;;;;;16.67;11.50;;;0.70;99.90;;;;;;4997570;28;20248;-64
2022/11/20 07:45:30;;;;;;;18.63;13.13;;;0.70;99.90;;;;;;4996653;28;20061;-64
2022/11/20 07:47:56;;;;;;;22.15;12.30;;;0.70;99.90;;;;;;4983855;28;20033;-66
2022/11/20 07:50:21;;;;;;;17.38;11.85;;;0.80;99.90;;;;;;4999397;28;20162;-64
2022/11/20 07:52:47;;;;;;;19.48;12.32;;;0.80;99.90;;;;;;5000618;28;20034;-63
2022/11/20 07:55:13;;;;;;;19.58;12.63;;;0.70;99.90;;;;;;4976834;28;20162;-66
2022/11/20 07:57:39;;;;;;;17.25;11.80;;;0.70;99.90;;;;;;4999590;28;20390;-66
2022/11/20 08:00:08;;;;;;;17.33;11.23;;;0.70;99.90;;;;;;4991415;28;20071;-66
2022/11/20 08:02:36;;;;;;;17.58;11.45;;;0.70;99.90;;;;;;4974460;28;20177;-64
2022/11/20 08:05:02;;;;;;;18.70;10.82;;;0.80;99.90;;;;;;5020069;22;20475;-65
2022/11/20 08:07:27;;;;;;;16.70;11.30;;;0.80;99.90;;;;;;5035520;28;20092;-65
2022/11/20 08:09:53;;;;;;;21.02;12.63;;;0.70;99.90;;;;;;5012755;28;20052;-65
2022/11/20 08:15:05;;;;;;;18.05;11.40;;;0.80;99.90;;;;;;5002309;28;20046;-65
2022/11/20 08:17:31;;;;;;;18.38;12.07;;;0.80;99.90;;;;;;5010160;28;20500;-65
2022/11/20 08:19:57;;;;;;;16.30;11.50;;;0.80;99.90;;;;;;5000936;28;20038;-64
2022/11/20 08:22:24;;;;;;;16.92;11.73;;;0.80;99.90;;;;;;5000580;28;20453;-65
2022/11/20 08:24:50;;;;;;;19.33;11.88;;;0.80;99.90;;;;;;4999374;28;20117;-65
2022/11/20 08:27:15;;;;;;;16.90;11.60;;;0.90;99.90;;;;;;5002637;28;20137;-63
2022/11/20 08:29:41;;;;;;;18.65;13.23;;;0.90;99.90;;;;;;5004393;28;20048;-64
2022/11/20 08:32:07;;;;;;;17.75;12.18;;;1.00;99.90;;;;;;5004692;28;20049;-63
2022/11/20 08:34:33;;;;;;;19.88;12.60;;;1.00;99.90;;;;;;5001014;28;20726;-64
2022/11/20 08:36:58;;;;;;;17.67;11.77;;;1.00;99.90;;;;;;4980364;28;20125;-64
2022/11/20 08:39:24;;;;;;;19.52;11.40;;;1.10;99.90;;;;;;4985932;28;20534;-64
2022/11/20 08:41:50;;;;;;;15.80;10.30;;;1.10;99.90;;;;;;5002062;28;20091;-64
2022/11/20 08:44:16;;;;;;;16.85;10.85;;;1.10;99.90;;;;;;4982161;28;20413;-64
2022/11/20 08:46:43;;;;;;;18.10;10.88;;;1.20;99.90;;;;;;4995885;28;21190;-64
2022/11/20 08:49:11;;;;;;;17.35;11.25;;;1.20;99.90;;;;;;4990087;28;20523;-64
2022/11/20 08:51:37;;;;;;;18.35;11.85;;;1.20;99.90;;;;;;4996766;28;20103;-64
2022/11/20 08:54:03;;;;;;;15.38;10.80;;;1.20;99.90;;;;;;5006425;28;20044;-65
2022/11/20 08:56:29;;;;;;;18.77;11.93;;;1.30;99.90;;;;;;4968247;28;20045;-64
2022/11/20 08:58:55;;;;;;;17.40;11.45;;;1.30;99.90;;;;;;4977559;28;20152;-64
2022/11/20 09:01:22;;;;;;;16.90;11.70;;;1.40;99.90;;;;;;5003841;28;20045;-65
2022/11/20 09:03:48;;;;;;;18.50;11.32;;;1.40;99.90;;;;;;5000114;28;20039;-65
2022/11/20 09:06:29;;;;;;;16.55;9.98;;;1.40;99.90;;;;;;5006060;28;20129;-64
2022/11/20 09:08:55;;;;;;;13.68;8.75;;;1.50;99.90;;;;;;4965189;28;20038;-64
2022/11/20 09:11:21;;;;;;;16.25;11.05;;;1.50;99.90;;;;;;4996255;28;20496;-64
2022/11/20 09:13:47;;;;;;;19.48;15.68;;;1.50;99.90;;;;;;4979639;28;20057;-64
2022/11/20 09:16:12;;;;;;;15.95;12.55;;;1.50;99.90;;;;;;4995703;28;20053;-65
2022/11/20 09:18:38;;;;;;;17.17;12.73;;;1.50;99.90;;;;;;4980705;28;20048;-64
2022/11/20 09:21:10;;;;;;;15.88;10.68;;;1.50;99.90;;;;;;5005157;28;20041;-64
2022/11/20 09:23:37;;;;;;;16.02;11.15;;;1.50;99.90;;;;;;5006679;28;20262;-65
2022/11/20 09:26:13;;;;;;;15.98;11.27;;;1.50;99.90;;;;;;4990080;28;20367;-64
2022/11/20 09:28:39;;;;;;;13.30;8.73;;;1.50;99.90;;;;;;5013266;28;20038;-64
2022/11/20 09:31:14;;;;;;;14.00;9.13;;;1.50;99.90;;;;;;5000855;28;20501;-64
2022/11/20 09:33:39;;;;;;;14.25;9.45;;;1.60;99.90;;;;;;4993069;28;20034;-64
2022/11/20 09:36:05;;;;;;;15.48;9.95;;;1.70;99.90;;;;;;5000650;28;20482;-65
2022/11/20 09:38:31;;;;;;;15.57;10.80;;;1.70;99.90;;;;;;4999646;28;20042;-64
2022/11/20 09:41:02;;;;;;;14.52;10.15;;;1.70;99.90;;;;;;4997936;28;20048;-65
2022/11/20 09:43:49;;;;;;;17.27;9.98;;;1.80;99.90;;;;;;4995312;28;20050;-64
2022/11/20 09:46:27;;;;;;;14.88;9.63;;;1.90;99.90;;;;;;5008644;28;20531;-65
2022/11/20 09:49:04;;;;;;;14.73;9.40;;;1.90;99.90;;;;;;4998126;28;20390;-65
2022/11/20 09:51:41;;;;;;;13.50;8.98;;;1.90;99.90;;;;;;5000392;28;20034;-64
2022/11/20 09:54:10;;;;;;;15.20;8.73;;;2.00;99.90;;;;;;4983587;28;20099;-64
2022/11/20 09:56:42;;;;;;;14.45;9.45;;;2.00;99.90;;;;;;4980969;28;20050;-65
2022/11/20 09:59:32;;;;;;;13.57;9.52;;;2.10;99.90;;;;;;4978631;28;20423;-64
2022/11/20 10:02:00;;;;;;;14.43;9.77;;;2.10;99.90;;;;;;4997154;28;20046;-65
2022/11/20 10:04:25;;;;;;;12.95;8.45;;;2.10;99.90;;;;;;4989982;28;20088;-65
2022/11/20 10:07:11;;;;;;;13.00;9.30;;;2.10;99.90;;;;;;4991011;28;20038;-65
2022/11/20 10:09:42;;;;;;;13.93;8.88;;;2.20;99.90;;;;;;5000243;28;20068;-65
2022/11/20 10:12:43;;;;;;;15.50;10.55;;;2.30;99.90;;;;;;4992853;28;20350;-66
2022/11/20 10:15:38;;;;;;;13.75;9.63;;;2.30;99.90;;;;;;4955876;28;20091;-65
2022/11/20 10:18:38;;;;;;;14.10;9.73;;;2.30;99.90;;;;;;5000113;28;20121;-66
2022/11/20 10:21:26;;;;;;;12.40;9.18;;;2.40;99.90;;;;;;4996216;28;20554;-66
2022/11/20 10:23:59;;;;;;;13.77;9.43;;;2.40;99.90;;;;;;4986623;28;20042;-65
2022/11/20 10:26:40;;;;;;;10.90;8.13;;;2.50;99.90;;;;;;4999610;28;20049;-65
2022/11/20 10:29:09;;;;;;;14.15;8.85;;;2.60;99.90;;;;;;4992900;28;20476;-66
2022/11/20 10:31:42;;;;;;;12.30;8.77;;;2.60;99.90;;;;;;5003387;28;20082;-66
2022/11/20 10:34:28;;;;;;;13.35;9.05;;;2.70;99.90;;;;;;4979530;28;20050;-66
2022/11/20 10:37:27;;;;;;;12.90;8.55;;;2.80;99.90;;;;;;4994493;28;21690;-65
2022/11/20 10:40:05;;;;;;;13.38;7.53;;;2.90;99.90;;;;;;4995667;28;20037;-65
2022/11/20 10:42:44;;;;;;;11.77;7.63;;;2.90;99.90;;;;;;4988443;28;20056;-65
2022/11/20 10:45:25;;;;;;;10.27;7.28;;;3.00;99.90;;;;;;4995569;28;20144;-65
2022/11/20 10:48:11;;;;;;;13.55;7.00;;;3.10;99.90;;;;;;4997547;28;20038;-66
2022/11/20 10:50:43;;;;;;;10.85;7.10;;;3.20;99.90;;;;;;4971751;28;20038;-65
2022/11/20 10:53:41;;;;;;;9.95;6.68;;;3.30;99.90;;;;;;4989220;28;20124;-66
2022/11/20 10:56:19;;;;;;;9.48;6.65;;;3.30;99.90;;;;;;4999271;28;20049;-66
2022/11/20 10:59:00;;;;;;;9.45;5.78;;;3.40;99.90;;;;;;4993438;28;20421;-65
2022/11/20 11:01:26;;;;;;;9.57;5.95;;;3.40;99.90;;;;;;4976347;28;20374;-66
2022/11/20 11:03:54;;;;;;;8.70;5.57;;;3.40;99.90;;;;;;4973314;28;20050;-65
2022/11/20 11:06:39;;;;;;;9.55;5.57;;;3.50;99.90;;;;;;4945738;28;20042;-65
2022/11/20 11:09:37;;;;;;;9.48;5.00;;;3.60;99.90;;;;;;5003002;28;20215;-65
2022/11/20 11:12:08;;;;;;;7.93;5.93;;;3.70;99.90;;;;;;4975973;28;20107;-65
2022/11/20 11:14:45;;;;;;;6.95;4.88;;;3.70;99.90;;;;;;4971102;28;20072;-66
2022/11/20 11:17:27;;;;;;;7.90;5.22;;;3.70;99.90;;;;;;4982615;28;20053;-65
2022/11/20 11:20:20;;;;;;;8.88;6.07;;;3.80;99.90;;;;;;4998151;28;20057;-65
2022/11/20 11:22:57;;;;;;;8.77;5.85;;;3.80;99.90;;;;;;4981095;28;20054;-66
2022/11/20 11:25:34;;;;;;;10.98;7.10;;;3.80;99.90;;;;;;4969310;28;20842;-66
2022/11/20 11:28:04;;;;;;;10.65;7.10;;;3.80;99.90;;;;;;4982448;28;20568;-65
2022/11/20 11:30:40;;;;;;;8.80;6.25;;;3.60;99.90;;;;;;4963398;28;20046;-64
2022/11/20 11:33:18;;;;;;;8.80;5.97;;;3.80;99.90;;;;;;4985617;28;20037;-65
2022/11/20 11:35:58;;;;;;;9.10;6.03;;;3.90;99.90;;;;;;4979211;28;20042;-66
2022/11/20 11:38:37;;;;;;;8.52;5.70;;;3.90;99.90;;;;;;4994275;28;20046;-65
2022/11/20 11:41:05;;;;;;;7.68;5.47;;;3.90;99.90;;;;;;4970913;28;20096;-69
2022/11/20 11:46:20;;;;;;;9.48;6.57;;;4.00;99.90;;;;;;4991423;28;20081;-65
2022/11/20 11:49:17;;;;;;;9.70;6.80;;;4.00;99.90;;;;;;4987575;28;20157;-65
2022/11/20 11:52:13;;;;;;;12.25;6.72;;;4.10;99.90;;;;;;4952160;28;20513;-65
2022/11/20 11:54:58;;;;;;;6.60;4.63;;;4.10;99.90;;;;;;4984273;28;20070;-65
2022/11/20 11:57:35;;;;;;;;;;;4.00;99.90;;;;;;5004055;28;20068;-65
2022/11/20 12:00:03;;;;;;;7.55;4.50;;;4.00;99.90;;;;;;4994710;28;19926;-65
2022/11/20 12:02:44;;;;;;;9.30;6.07;;;4.00;99.90;;;;;;4998425;28;20448;-66
2022/11/20 12:05:29;;;;;;;7.93;5.57;;;4.00;99.90;;;;;;5004361;28;20314;-64
2022/11/20 12:07:58;;;;;;;8.18;5.40;;;4.00;99.90;;;;;;4989029;28;20112;-65
2022/11/20 12:10:40;;;;;;;8.13;4.93;;;4.00;99.90;;;;;;4989581;28;20042;-66
2022/11/20 12:13:24;;;;;;;6.63;4.43;;;4.00;99.90;;;;;;5008551;28;20509;-64
2022/11/20 12:15:50;;;;;;;8.18;5.40;;;4.00;99.90;;;;;;4986702;28;20519;-66
2022/11/20 12:18:21;;;;;;;7.35;4.50;;;3.90;99.90;;;;;;5006152;28;20129;-65
2022/11/20 12:21:24;;;;;;;6.80;4.68;;;3.90;99.90;;;;;;4979776;28;20168;-66
2022/11/20 12:24:05;;;;;;;7.70;4.80;;;3.90;99.90;;;;;;4977007;28;20054;-65
2022/11/20 12:26:46;;;;;;;9.18;5.07;;;3.90;99.90;;;;;;4990536;28;20050;-64
2022/11/20 12:29:18;;;;;;;7.82;5.07;;;3.90;99.90;;;;;;4995994;28;20076;-64
2022/11/20 12:32:01;;;;;;;7.35;4.75;;;4.20;99.90;;;;;;4987258;28;20038;-64
2022/11/20 12:34:48;;;;;;;7.20;4.95;;;3.90;99.90;;;;;;4994606;28;20030;-65
2022/11/20 12:37:41;;;;;;;8.70;5.20;;;3.90;99.90;;;;;;4983431;28;20188;-66
2022/11/20 12:40:25;;;;;;;8.45;5.47;;;3.90;99.90;;;;;;5003953;28;20049;-65
2022/11/20 12:46:20;;;;;;;7.55;5.43;;;4.50;99.90;;;;;;5015606;28;20037;-65
2022/11/20 12:49:06;;;;;;;8.90;4.97;;;4.00;99.90;;;;;;4992268;28;20220;-65
2022/11/20 12:51:44;;;;;;;7.07;5.18;;;3.90;99.90;;;;;;4998452;28;20563;-65
2022/11/20 12:54:48;;;;;;;8.30;5.18;;;3.90;99.90;;;;;;4974442;28;20042;-65
2022/11/20 12:57:31;;;;;;;8.25;5.32;;;3.90;99.90;;;;;;4999214;28;20630;-66
2022/11/20 13:00:05;;;;;;;7.93;5.43;;;3.90;99.90;;;;;;5000967;28;20259;-65
2022/11/20 13:02:40;;;;;;;8.05;5.45;;;3.90;99.90;;;;;;4989675;28;20133;-64
2022/11/20 13:05:18;;;;;;;7.65;5.35;;;3.90;99.90;;;;;;5015297;28;20207;-65
2022/11/20 13:07:44;;;;;;;8.32;5.88;;;3.90;99.90;;;;;;4996290;28;20038;-64